sensor_id;sensor_type;location;lat;lon;timestamp;P1;durP1;ratioP1;P2;durP2;ratioP2
30472;SDS011;17263;48.160;11.452;2024-01-06T00:02:06;11.90;;;10.70;;
30472;SDS011;17263;48.160;11.452;2024-01-06T00:04:32;12.70;;;11.40;;
30472;SDS011;17263;48.160;11.452;2024-01-06T00:06:59;13.27;;;11.97;;
30472;SDS011;17263;48.160;11.452;2024-01-06T00:09:25;13.87;;;12.20;;
30472;SDS011;17263;48.160;11.452;2024-01-06T00:11:51;14.47;;;12.83;;
30472;SDS011;17263;48.160;11.452;2024-01-06T00:14:17;13.73;;;12.20;;
30472;SDS011;17263;48.160;11.452;2024-01-06T00:16:43;14.47;;;12.70;;
30472;SDS011;17263;48.160;11.452;2024-01-06T00:19:10;14.67;;;13.17;;
30472;SDS011;17263;48.160;11.452;2024-01-06T00:21:36;14.93;;;12.80;;
30472;SDS011;17263;48.160;11.452;2024-01-06T00:24:03;13.43;;;12.03;;
30472;SDS011;17263;48.160;11.452;2024-01-06T00:26:29;15.53;;;12.70;;
30472;SDS011;17263;48.160;11.452;2024-01-06T00:28:55;12.87;;;11.57;;
30472;SDS011;17263;48.160;11.452;2024-01-06T00:31:21;12.63;;;11.37;;
30472;SDS011;17263;48.160;11.452;2024-01-06T00:33:48;13.97;;;12.60;;
30472;SDS011;17263;48.160;11.452;2024-01-06T00:36:14;16.00;;;13.13;;
30472;SDS011;17263;48.160;11.452;2024-01-06T00:38:40;14.73;;;13.33;;
30472;SDS011;17263;48.160;11.452;2024-01-06T00:41:06;14.97;;;13.47;;
30472;SDS011;17263;48.160;11.452;2024-01-06T00:43:33;15.03;;;13.57;;
30472;SDS011;17263;48.160;11.452;2024-01-06T00:45:59;14.40;;;12.90;;
30472;SDS011;17263;48.160;11.452;2024-01-06T00:48:25;15.00;;;13.23;;
30472;SDS011;17263;48.160;11.452;2024-01-06T00:50:51;15.10;;;13.60;;
30472;SDS011;17263;48.160;11.452;2024-01-06T00:53:18;15.40;;;13.87;;
30472;SDS011;17263;48.160;11.452;2024-01-06T00:55:44;14.47;;;12.97;;
30472;SDS011;17263;48.160;11.452;2024-01-06T00:58:10;15.00;;;13.57;;
30472;SDS011;17263;48.160;11.452;2024-01-06T01:00:36;15.10;;;13.60;;
30472;SDS011;17263;48.160;11.452;2024-01-06T01:03:02;15.27;;;13.67;;
30472;SDS011;17263;48.160;11.452;2024-01-06T01:05:29;14.63;;;13.23;;
30472;SDS011;17263;48.160;11.452;2024-01-06T01:07:55;14.03;;;12.63;;
30472;SDS011;17263;48.160;11.452;2024-01-06T01:10:21;14.70;;;13.20;;
30472;SDS011;17263;48.160;11.452;2024-01-06T01:12:47;13.40;;;12.03;;
30472;SDS011;17263;48.160;11.452;2024-01-06T01:15:13;15.43;;;13.70;;
30472;SDS011;17263;48.160;11.452;2024-01-06T01:17:39;14.03;;;12.63;;
30472;SDS011;17263;48.160;11.452;2024-01-06T01:20:05;14.77;;;13.27;;
30472;SDS011;17263;48.160;11.452;2024-01-06T01:22:32;12.70;;;11.50;;
30472;SDS011;17263;48.160;11.452;2024-01-06T01:24:58;13.60;;;12.20;;
30472;SDS011;17263;48.160;11.452;2024-01-06T01:27:30;13.73;;;12.43;;
30472;SDS011;17263;48.160;11.452;2024-01-06T01:29:57;14.23;;;12.73;;
30472;SDS011;17263;48.160;11.452;2024-01-06T01:32:23;15.37;;;13.97;;
30472;SDS011;17263;48.160;11.452;2024-01-06T01:34:49;15.20;;;13.70;;
30472;SDS011;17263;48.160;11.452;2024-01-06T01:37:15;15.53;;;13.93;;
30472;SDS011;17263;48.160;11.452;2024-01-06T01:39:42;15.63;;;14.13;;
30472;SDS011;17263;48.160;11.452;2024-01-06T01:42:08;14.80;;;13.30;;
30472;SDS011;17263;48.160;11.452;2024-01-06T01:44:35;15.50;;;13.90;;
30472;SDS011;17263;48.160;11.452;2024-01-06T01:47:02;16.97;;;15.17;;
30472;SDS011;17263;48.160;11.452;2024-01-06T01:49:30;15.17;;;13.60;;
30472;SDS011;17263;48.160;11.452;2024-01-06T01:51:58;16.07;;;13.07;;
30472;SDS011;17263;48.160;11.452;2024-01-06T01:54:24;14.87;;;13.47;;
30472;SDS011;17263;48.160;11.452;2024-01-06T01:56:51;14.93;;;13.33;;
30472;SDS011;17263;48.160;11.452;2024-01-06T01:59:18;14.87;;;13.03;;
30472;SDS011;17263;48.160;11.452;2024-01-06T02:01:45;13.30;;;12.07;;
30472;SDS011;17263;48.160;11.452;2024-01-06T02:04:12;12.37;;;11.03;;
30472;SDS011;17263;48.160;11.452;2024-01-06T02:06:38;11.50;;;10.40;;
30472;SDS011;17263;48.160;11.452;2024-01-06T02:09:04;12.63;;;11.40;;
30472;SDS011;17263;48.160;11.452;2024-01-06T02:11:31;12.30;;;10.97;;
30472;SDS011;17263;48.160;11.452;2024-01-06T02:13:57;13.70;;;12.30;;
30472;SDS011;17263;48.160;11.452;2024-01-06T02:16:23;13.77;;;12.30;;
30472;SDS011;17263;48.160;11.452;2024-01-06T02:18:49;13.40;;;12.00;;
30472;SDS011;17263;48.160;11.452;2024-01-06T02:21:15;14.57;;;12.70;;
30472;SDS011;17263;48.160;11.452;2024-01-06T02:23:43;13.93;;;12.53;;
30472;SDS011;17263;48.160;11.452;2024-01-06T02:26:09;13.53;;;11.90;;
30472;SDS011;17263;48.160;11.452;2024-01-06T02:28:36;13.17;;;11.80;;
30472;SDS011;17263;48.160;11.452;2024-01-06T02:31:02;12.93;;;11.67;;
30472;SDS011;17263;48.160;11.452;2024-01-06T02:33:28;13.67;;;12.30;;
30472;SDS011;17263;48.160;11.452;2024-01-06T02:35:54;12.57;;;11.27;;
30472;SDS011;17263;48.160;11.452;2024-01-06T02:38:20;12.80;;;11.50;;
30472;SDS011;17263;48.160;11.452;2024-01-06T02:40:46;12.83;;;11.53;;
30472;SDS011;17263;48.160;11.452;2024-01-06T02:43:12;11.87;;;10.67;;
30472;SDS011;17263;48.160;11.452;2024-01-06T02:45:38;13.60;;;12.27;;
30472;SDS011;17263;48.160;11.452;2024-01-06T02:48:04;13.73;;;12.33;;
30472;SDS011;17263;48.160;11.452;2024-01-06T02:50:30;12.80;;;11.47;;
30472;SDS011;17263;48.160;11.452;2024-01-06T02:52:56;12.90;;;11.60;;
30472;SDS011;17263;48.160;11.452;2024-01-06T02:55:22;13.63;;;12.30;;
30472;SDS011;17263;48.160;11.452;2024-01-06T02:57:49;13.10;;;11.50;;
30472;SDS011;17263;48.160;11.452;2024-01-06T03:00:15;13.07;;;11.83;;
30472;SDS011;17263;48.160;11.452;2024-01-06T03:02:41;11.73;;;10.40;;
30472;SDS011;17263;48.160;11.452;2024-01-06T03:05:08;11.53;;;10.33;;
30472;SDS011;17263;48.160;11.452;2024-01-06T03:07:35;14.67;;;12.83;;
30472;SDS011;17263;48.160;11.452;2024-01-06T03:10:01;14.03;;;12.63;;
30472;SDS011;17263;48.160;11.452;2024-01-06T03:12:28;13.73;;;12.37;;
30472;SDS011;17263;48.160;11.452;2024-01-06T03:14:54;13.90;;;12.50;;
30472;SDS011;17263;48.160;11.452;2024-01-06T03:17:20;12.63;;;11.47;;
30472;SDS011;17263;48.160;11.452;2024-01-06T03:19:46;12.83;;;11.60;;
30472;SDS011;17263;48.160;11.452;2024-01-06T03:22:12;13.40;;;12.00;;
30472;SDS011;17263;48.160;11.452;2024-01-06T03:24:39;12.30;;;11.10;;
30472;SDS011;17263;48.160;11.452;2024-01-06T03:27:05;12.63;;;11.33;;
30472;SDS011;17263;48.160;11.452;2024-01-06T03:29:31;12.23;;;10.93;;
30472;SDS011;17263;48.160;11.452;2024-01-06T03:31:57;11.93;;;10.80;;
30472;SDS011;17263;48.160;11.452;2024-01-06T03:34:23;11.63;;;10.33;;
30472;SDS011;17263;48.160;11.452;2024-01-06T03:36:50;10.83;;;9.73;;
30472;SDS011;17263;48.160;11.452;2024-01-06T03:39:16;9.90;;;8.90;;
30472;SDS011;17263;48.160;11.452;2024-01-06T03:41:42;9.40;;;8.50;;
30472;SDS011;17263;48.160;11.452;2024-01-06T03:44:08;9.67;;;8.67;;
30472;SDS011;17263;48.160;11.452;2024-01-06T03:46:34;10.00;;;9.00;;
30472;SDS011;17263;48.160;11.452;2024-01-06T03:49:01;9.67;;;8.70;;
30472;SDS011;17263;48.160;11.452;2024-01-06T03:51:27;9.47;;;8.50;;
30472;SDS011;17263;48.160;11.452;2024-01-06T03:53:53;8.27;;;7.47;;
30472;SDS011;17263;48.160;11.452;2024-01-06T03:56:19;8.40;;;7.60;;
30472;SDS011;17263;48.160;11.452;2024-01-06T03:58:46;7.03;;;6.33;;
30472;SDS011;17263;48.160;11.452;2024-01-06T04:01:12;7.80;;;7.00;;
30472;SDS011;17263;48.160;11.452;2024-01-06T04:03:38;7.10;;;6.37;;
30472;SDS011;17263;48.160;11.452;2024-01-06T04:06:07;8.13;;;6.67;;
30472;SDS011;17263;48.160;11.452;2024-01-06T04:08:35;6.80;;;6.20;;
30472;SDS011;17263;48.160;11.452;2024-01-06T04:11:01;6.80;;;6.20;;
30472;SDS011;17263;48.160;11.452;2024-01-06T04:13:28;6.47;;;5.77;;
30472;SDS011;17263;48.160;11.452;2024-01-06T04:15:54;7.20;;;5.43;;
30472;SDS011;17263;48.160;11.452;2024-01-06T04:18:20;6.23;;;5.40;;
30472;SDS011;17263;48.160;11.452;2024-01-06T04:20:46;6.80;;;6.10;;
30472;SDS011;17263;48.160;11.452;2024-01-06T04:23:12;5.40;;;4.90;;
30472;SDS011;17263;48.160;11.452;2024-01-06T04:25:38;6.10;;;4.87;;
30472;SDS011;17263;48.160;11.452;2024-01-06T04:28:04;5.17;;;4.00;;
30472;SDS011;17263;48.160;11.452;2024-01-06T04:30:30;3.83;;;3.53;;
30472;SDS011;17263;48.160;11.452;2024-01-06T04:32:56;3.10;;;2.70;;
30472;SDS011;17263;48.160;11.452;2024-01-06T04:35:23;2.33;;;2.13;;
30472;SDS011;17263;48.160;11.452;2024-01-06T04:37:50;1.60;;;1.50;;
30472;SDS011;17263;48.160;11.452;2024-01-06T04:40:16;2.23;;;1.50;;
30472;SDS011;17263;48.160;11.452;2024-01-06T04:42:42;1.20;;;1.10;;
30472;SDS011;17263;48.160;11.452;2024-01-06T04:45:09;1.10;;;1.00;;
30472;SDS011;17263;48.160;11.452;2024-01-06T04:47:35;1.00;;;0.90;;
30472;SDS011;17263;48.160;11.452;2024-01-06T04:50:01;1.03;;;0.93;;
30472;SDS011;17263;48.160;11.452;2024-01-06T04:52:27;1.30;;;1.10;;
30472;SDS011;17263;48.160;11.452;2024-01-06T04:54:55;0.93;;;0.90;;
30472;SDS011;17263;48.160;11.452;2024-01-06T04:57:21;1.10;;;1.00;;
30472;SDS011;17263;48.160;11.452;2024-01-06T04:59:47;1.07;;;0.97;;
30472;SDS011;17263;48.160;11.452;2024-01-06T05:02:13;1.47;;;1.13;;
30472;SDS011;17263;48.160;11.452;2024-01-06T05:04:39;8.60;;;6.77;;
30472;SDS011;17263;48.160;11.452;2024-01-06T05:07:05;5.73;;;4.97;;
30472;SDS011;17263;48.160;11.452;2024-01-06T05:09:31;3.00;;;2.70;;
30472;SDS011;17263;48.160;11.452;2024-01-06T05:11:57;1.57;;;1.47;;
30472;SDS011;17263;48.160;11.452;2024-01-06T05:14:23;1.27;;;1.17;;
30472;SDS011;17263;48.160;11.452;2024-01-06T05:16:49;1.33;;;1.20;;
30472;SDS011;17263;48.160;11.452;2024-01-06T05:19:15;2.30;;;1.30;;
30472;SDS011;17263;48.160;11.452;2024-01-06T05:21:46;1.20;;;1.10;;
30472;SDS011;17263;48.160;11.452;2024-01-06T05:24:13;1.97;;;1.60;;
30472;SDS011;17263;48.160;11.452;2024-01-06T05:26:39;1.20;;;1.10;;
30472;SDS011;17263;48.160;11.452;2024-01-06T05:29:05;1.17;;;1.07;;
30472;SDS011;17263;48.160;11.452;2024-01-06T05:31:31;0.93;;;0.93;;
30472;SDS011;17263;48.160;11.452;2024-01-06T05:33:57;1.20;;;1.10;;
30472;SDS011;17263;48.160;11.452;2024-01-06T05:36:23;2.27;;;1.17;;
30472;SDS011;17263;48.160;11.452;2024-01-06T05:38:49;1.40;;;1.30;;
30472;SDS011;17263;48.160;11.452;2024-01-06T05:41:15;1.20;;;1.10;;
30472;SDS011;17263;48.160;11.452;2024-01-06T05:43:41;1.50;;;1.20;;
30472;SDS011;17263;48.160;11.452;2024-01-06T05:46:08;1.20;;;1.10;;
30472;SDS011;17263;48.160;11.452;2024-01-06T05:48:36;1.10;;;1.00;;
30472;SDS011;17263;48.160;11.452;2024-01-06T05:51:05;1.50;;;1.20;;
30472;SDS011;17263;48.160;11.452;2024-01-06T05:53:31;1.23;;;1.10;;
30472;SDS011;17263;48.160;11.452;2024-01-06T05:55:57;1.27;;;1.17;;
30472;SDS011;17263;48.160;11.452;2024-01-06T05:58:23;0.70;;;0.70;;
30472;SDS011;17263;48.160;11.452;2024-01-06T06:00:49;1.10;;;0.90;;
30472;SDS011;17263;48.160;11.452;2024-01-06T06:03:16;1.70;;;1.50;;
30472;SDS011;17263;48.160;11.452;2024-01-06T06:05:42;4.23;;;3.57;;
30472;SDS011;17263;48.160;11.452;2024-01-06T06:08:08;1.67;;;1.57;;
30472;SDS011;17263;48.160;11.452;2024-01-06T06:10:34;1.60;;;1.30;;
30472;SDS011;17263;48.160;11.452;2024-01-06T06:13:17;1.00;;;0.90;;
30472;SDS011;17263;48.160;11.452;2024-01-06T06:15:43;0.90;;;0.90;;
30472;SDS011;17263;48.160;11.452;2024-01-06T06:18:09;1.20;;;1.10;;
30472;SDS011;17263;48.160;11.452;2024-01-06T06:20:35;2.07;;;1.63;;
30472;SDS011;17263;48.160;11.452;2024-01-06T06:23:01;3.00;;;2.00;;
30472;SDS011;17263;48.160;11.452;2024-01-06T06:25:27;2.93;;;2.17;;
30472;SDS011;17263;48.160;11.452;2024-01-06T06:27:53;3.37;;;2.60;;
30472;SDS011;17263;48.160;11.452;2024-01-06T06:30:19;3.90;;;2.57;;
30472;SDS011;17263;48.160;11.452;2024-01-06T06:32:45;3.77;;;2.50;;
30472;SDS011;17263;48.160;11.452;2024-01-06T06:35:11;3.20;;;2.40;;
30472;SDS011;17263;48.160;11.452;2024-01-06T06:37:37;4.57;;;2.53;;
30472;SDS011;17263;48.160;11.452;2024-01-06T06:40:03;2.20;;;2.00;;
30472;SDS011;17263;48.160;11.452;2024-01-06T06:42:30;5.03;;;2.60;;
30472;SDS011;17263;48.160;11.452;2024-01-06T06:44:56;5.10;;;2.83;;
30472;SDS011;17263;48.160;11.452;2024-01-06T06:47:22;4.03;;;2.90;;
30472;SDS011;17263;48.160;11.452;2024-01-06T06:49:48;2.40;;;2.20;;
30472;SDS011;17263;48.160;11.452;2024-01-06T06:52:14;2.80;;;2.33;;
30472;SDS011;17263;48.160;11.452;2024-01-06T06:54:40;3.33;;;2.80;;
30472;SDS011;17263;48.160;11.452;2024-01-06T06:57:06;4.07;;;2.50;;
30472;SDS011;17263;48.160;11.452;2024-01-06T06:59:32;4.60;;;2.70;;
30472;SDS011;17263;48.160;11.452;2024-01-06T07:01:58;3.27;;;2.57;;
30472;SDS011;17263;48.160;11.452;2024-01-06T07:04:24;4.27;;;3.00;;
30472;SDS011;17263;48.160;11.452;2024-01-06T07:06:51;3.30;;;2.77;;
30472;SDS011;17263;48.160;11.452;2024-01-06T07:09:17;3.60;;;2.90;;
30472;SDS011;17263;48.160;11.452;2024-01-06T07:11:43;5.10;;;3.13;;
30472;SDS011;17263;48.160;11.452;2024-01-06T07:14:09;3.63;;;3.00;;
30472;SDS011;17263;48.160;11.452;2024-01-06T07:16:35;4.50;;;3.10;;
30472;SDS011;17263;48.160;11.452;2024-01-06T07:19:01;3.27;;;2.97;;
30472;SDS011;17263;48.160;11.452;2024-01-06T07:21:27;7.00;;;3.37;;
30472;SDS011;17263;48.160;11.452;2024-01-06T07:23:53;5.63;;;3.13;;
30472;SDS011;17263;48.160;11.452;2024-01-06T07:26:19;4.73;;;3.40;;
30472;SDS011;17263;48.160;11.452;2024-01-06T07:28:45;3.73;;;3.20;;
30472;SDS011;17263;48.160;11.452;2024-01-06T07:31:11;3.10;;;2.80;;
30472;SDS011;17263;48.160;11.452;2024-01-06T07:33:37;4.00;;;2.57;;
30472;SDS011;17263;48.160;11.452;2024-01-06T07:36:04;2.70;;;2.37;;
30472;SDS011;17263;48.160;11.452;2024-01-06T07:38:31;4.27;;;2.40;;
30472;SDS011;17263;48.160;11.452;2024-01-06T07:40:57;4.30;;;2.40;;
30472;SDS011;17263;48.160;11.452;2024-01-06T07:43:23;5.33;;;2.47;;
30472;SDS011;17263;48.160;11.452;2024-01-06T07:45:49;3.00;;;2.03;;
30472;SDS011;17263;48.160;11.452;2024-01-06T07:48:16;5.90;;;2.40;;
30472;SDS011;17263;48.160;11.452;2024-01-06T07:50:42;3.67;;;2.10;;
30472;SDS011;17263;48.160;11.452;2024-01-06T07:53:08;3.13;;;2.13;;
30472;SDS011;17263;48.160;11.452;2024-01-06T07:55:34;3.47;;;1.90;;
30472;SDS011;17263;48.160;11.452;2024-01-06T07:58:00;3.37;;;2.10;;
30472;SDS011;17263;48.160;11.452;2024-01-06T08:00:26;3.30;;;1.90;;
30472;SDS011;17263;48.160;11.452;2024-01-06T08:02:52;4.77;;;2.27;;
30472;SDS011;17263;48.160;11.452;2024-01-06T08:05:18;3.73;;;2.10;;
30472;SDS011;17263;48.160;11.452;2024-01-06T08:07:44;3.60;;;2.10;;
30472;SDS011;17263;48.160;11.452;2024-01-06T08:10:10;3.97;;;2.70;;
30472;SDS011;17263;48.160;11.452;2024-01-06T08:12:36;5.53;;;3.30;;
30472;SDS011;17263;48.160;11.452;2024-01-06T08:15:03;4.67;;;2.80;;
30472;SDS011;17263;48.160;11.452;2024-01-06T08:17:30;5.83;;;3.10;;
30472;SDS011;17263;48.160;11.452;2024-01-06T08:19:56;4.47;;;3.10;;
30472;SDS011;17263;48.160;11.452;2024-01-06T08:22:22;3.57;;;3.00;;
30472;SDS011;17263;48.160;11.452;2024-01-06T08:24:48;5.17;;;2.77;;
30472;SDS011;17263;48.160;11.452;2024-01-06T08:27:14;4.53;;;2.80;;
30472;SDS011;17263;48.160;11.452;2024-01-06T08:29:40;3.27;;;2.80;;
30472;SDS011;17263;48.160;11.452;2024-01-06T08:32:06;3.47;;;2.60;;
30472;SDS011;17263;48.160;11.452;2024-01-06T08:34:32;5.67;;;3.10;;
30472;SDS011;17263;48.160;11.452;2024-01-06T08:36:58;3.60;;;2.83;;
30472;SDS011;17263;48.160;11.452;2024-01-06T08:39:24;5.43;;;2.57;;
30472;SDS011;17263;48.160;11.452;2024-01-06T08:41:50;4.07;;;3.00;;
30472;SDS011;17263;48.160;11.452;2024-01-06T08:44:16;4.70;;;2.73;;
30472;SDS011;17263;48.160;11.452;2024-01-06T08:46:42;3.43;;;2.70;;
30472;SDS011;17263;48.160;11.452;2024-01-06T08:49:08;4.87;;;2.77;;
30472;SDS011;17263;48.160;11.452;2024-01-06T08:51:34;6.63;;;2.70;;
30472;SDS011;17263;48.160;11.452;2024-01-06T08:54:01;4.00;;;2.83;;
30472;SDS011;17263;48.160;11.452;2024-01-06T08:56:30;5.67;;;2.70;;
30472;SDS011;17263;48.160;11.452;2024-01-06T08:58:56;5.40;;;3.10;;
30472;SDS011;17263;48.160;11.452;2024-01-06T09:01:22;4.43;;;2.03;;
30472;SDS011;17263;48.160;11.452;2024-01-06T09:03:48;3.57;;;2.50;;
30472;SDS011;17263;48.160;11.452;2024-01-06T09:06:15;5.60;;;2.93;;
30472;SDS011;17263;48.160;11.452;2024-01-06T09:08:41;6.70;;;3.07;;
30472;SDS011;17263;48.160;11.452;2024-01-06T09:11:07;4.10;;;3.00;;
30472;SDS011;17263;48.160;11.452;2024-01-06T09:13:33;5.93;;;3.27;;
30472;SDS011;17263;48.160;11.452;2024-01-06T09:15:59;5.03;;;3.23;;
30472;SDS011;17263;48.160;11.452;2024-01-06T09:18:26;3.53;;;2.50;;
30472;SDS011;17263;48.160;11.452;2024-01-06T09:20:52;4.53;;;3.00;;
30472;SDS011;17263;48.160;11.452;2024-01-06T09:23:19;3.83;;;2.83;;
30472;SDS011;17263;48.160;11.452;2024-01-06T09:25:46;5.47;;;2.70;;
30472;SDS011;17263;48.160;11.452;2024-01-06T09:28:15;4.90;;;2.30;;
30472;SDS011;17263;48.160;11.452;2024-01-06T09:30:41;5.53;;;2.70;;
30472;SDS011;17263;48.160;11.452;2024-01-06T09:33:07;5.00;;;2.60;;
30472;SDS011;17263;48.160;11.452;2024-01-06T09:35:33;4.33;;;2.63;;
30472;SDS011;17263;48.160;11.452;2024-01-06T09:38:00;3.93;;;2.60;;
30472;SDS011;17263;48.160;11.452;2024-01-06T09:40:26;3.60;;;2.70;;
30472;SDS011;17263;48.160;11.452;2024-01-06T09:42:53;6.40;;;2.80;;
30472;SDS011;17263;48.160;11.452;2024-01-06T09:45:19;4.93;;;2.80;;
30472;SDS011;17263;48.160;11.452;2024-01-06T09:47:48;6.97;;;3.50;;
30472;SDS011;17263;48.160;11.452;2024-01-06T09:50:17;4.00;;;3.30;;
30472;SDS011;17263;48.160;11.452;2024-01-06T09:52:48;4.60;;;3.70;;
30472;SDS011;17263;48.160;11.452;2024-01-06T09:55:26;5.73;;;3.83;;
30472;SDS011;17263;48.160;11.452;2024-01-06T09:57:52;5.10;;;3.80;;
30472;SDS011;17263;48.160;11.452;2024-01-06T10:00:19;5.17;;;3.60;;
30472;SDS011;17263;48.160;11.452;2024-01-06T10:02:47;5.10;;;3.57;;
30472;SDS011;17263;48.160;11.452;2024-01-06T10:05:15;4.67;;;3.27;;
30472;SDS011;17263;48.160;11.452;2024-01-06T10:07:42;5.17;;;3.13;;
30472;SDS011;17263;48.160;11.452;2024-01-06T10:10:09;4.80;;;3.10;;
30472;SDS011;17263;48.160;11.452;2024-01-06T10:12:38;5.73;;;3.10;;
30472;SDS011;17263;48.160;11.452;2024-01-06T10:15:09;6.30;;;3.07;;
30472;SDS011;17263;48.160;11.452;2024-01-06T10:17:39;4.10;;;2.80;;
30472;SDS011;17263;48.160;11.452;2024-01-06T10:20:07;5.13;;;3.10;;
30472;SDS011;17263;48.160;11.452;2024-01-06T10:22:36;5.27;;;3.13;;
30472;SDS011;17263;48.160;11.452;2024-01-06T10:25:05;3.67;;;2.83;;
30472;SDS011;17263;48.160;11.452;2024-01-06T10:27:35;7.23;;;3.33;;
30472;SDS011;17263;48.160;11.452;2024-01-06T10:30:03;4.63;;;2.73;;
30472;SDS011;17263;48.160;11.452;2024-01-06T10:32:31;6.53;;;2.87;;
30472;SDS011;17263;48.160;11.452;2024-01-06T10:34:57;5.27;;;3.17;;
30472;SDS011;17263;48.160;11.452;2024-01-06T10:37:25;5.23;;;2.67;;
30472;SDS011;17263;48.160;11.452;2024-01-06T10:40:12;4.70;;;3.07;;
30472;SDS011;17263;48.160;11.452;2024-01-06T10:42:39;4.53;;;3.30;;
30472;SDS011;17263;48.160;11.452;2024-01-06T10:45:07;6.47;;;3.80;;
30472;SDS011;17263;48.160;11.452;2024-01-06T10:47:38;4.37;;;3.20;;
30472;SDS011;17263;48.160;11.452;2024-01-06T10:50:06;4.63;;;3.30;;
30472;SDS011;17263;48.160;11.452;2024-01-06T10:52:37;6.90;;;4.10;;
30472;SDS011;17263;48.160;11.452;2024-01-06T10:55:04;8.90;;;3.43;;
30472;SDS011;17263;48.160;11.452;2024-01-06T10:57:31;5.33;;;3.80;;
30472;SDS011;17263;48.160;11.452;2024-01-06T10:59:59;4.77;;;3.53;;
30472;SDS011;17263;48.160;11.452;2024-01-06T11:02:26;9.17;;;3.87;;
30472;SDS011;17263;48.160;11.452;2024-01-06T11:04:54;3.97;;;3.40;;
30472;SDS011;17263;48.160;11.452;2024-01-06T11:07:24;7.60;;;3.93;;
30472;SDS011;17263;48.160;11.452;2024-01-06T11:09:56;4.93;;;3.27;;
30472;SDS011;17263;48.160;11.452;2024-01-06T11:12:24;6.13;;;3.63;;
30472;SDS011;17263;48.160;11.452;2024-01-06T11:14:51;6.93;;;4.20;;
30472;SDS011;17263;48.160;11.452;2024-01-06T11:20:27;6.57;;;4.17;;
30472;SDS011;17263;48.160;11.452;2024-01-06T11:22:53;6.10;;;3.77;;
30472;SDS011;17263;48.160;11.452;2024-01-06T11:25:20;6.43;;;3.77;;
30472;SDS011;17263;48.160;11.452;2024-01-06T11:27:48;5.90;;;4.03;;
30472;SDS011;17263;48.160;11.452;2024-01-06T11:30:18;5.23;;;3.73;;
30472;SDS011;17263;48.160;11.452;2024-01-06T11:32:45;4.80;;;3.43;;
30472;SDS011;17263;48.160;11.452;2024-01-06T11:35:15;7.70;;;4.03;;
30472;SDS011;17263;48.160;11.452;2024-01-06T11:40:11;6.73;;;4.20;;
30472;SDS011;17263;48.160;11.452;2024-01-06T11:42:47;5.67;;;4.03;;
30472;SDS011;17263;48.160;11.452;2024-01-06T11:45:14;7.47;;;3.80;;
30472;SDS011;17263;48.160;11.452;2024-01-06T11:47:43;7.20;;;4.43;;
30472;SDS011;17263;48.160;11.452;2024-01-06T11:50:13;5.57;;;4.30;;
30472;SDS011;17263;48.160;11.452;2024-01-06T11:52:40;7.03;;;4.10;;
30472;SDS011;17263;48.160;11.452;2024-01-06T11:55:06;8.07;;;4.20;;
30472;SDS011;17263;48.160;11.452;2024-01-06T11:57:36;6.77;;;4.20;;
30472;SDS011;17263;48.160;11.452;2024-01-06T12:00:03;7.53;;;4.30;;
30472;SDS011;17263;48.160;11.452;2024-01-06T12:02:30;5.87;;;4.63;;
30472;SDS011;17263;48.160;11.452;2024-01-06T12:04:56;29.13;;;20.00;;
30472;SDS011;17263;48.160;11.452;2024-01-06T12:07:23;12.83;;;8.43;;
30472;SDS011;17263;48.160;11.452;2024-01-06T12:09:50;9.17;;;6.33;;
30472;SDS011;17263;48.160;11.452;2024-01-06T12:12:25;9.80;;;5.10;;
30472;SDS011;17263;48.160;11.452;2024-01-06T12:14:51;10.13;;;5.53;;
30472;SDS011;17263;48.160;11.452;2024-01-06T12:17:17;7.03;;;5.20;;
30472;SDS011;17263;48.160;11.452;2024-01-06T12:19:47;9.67;;;5.50;;
30472;SDS011;17263;48.160;11.452;2024-01-06T12:22:14;5.40;;;4.60;;
30472;SDS011;17263;48.160;11.452;2024-01-06T12:24:41;7.83;;;4.80;;
30472;SDS011;17263;48.160;11.452;2024-01-06T12:27:11;6.80;;;4.77;;
30472;SDS011;17263;48.160;11.452;2024-01-06T12:29:37;7.43;;;4.37;;
30472;SDS011;17263;48.160;11.452;2024-01-06T12:32:05;6.70;;;4.23;;
30472;SDS011;17263;48.160;11.452;2024-01-06T12:34:33;5.23;;;3.73;;
30472;SDS011;17263;48.160;11.452;2024-01-06T12:37:00;7.40;;;4.60;;
30472;SDS011;17263;48.160;11.452;2024-01-06T12:39:30;9.20;;;4.10;;
30472;SDS011;17263;48.160;11.452;2024-01-06T12:41:57;7.23;;;3.87;;
30472;SDS011;17263;48.160;11.452;2024-01-06T12:44:25;5.27;;;4.40;;
30472;SDS011;17263;48.160;11.452;2024-01-06T12:46:52;6.00;;;3.77;;
30472;SDS011;17263;48.160;11.452;2024-01-06T12:49:19;7.90;;;4.50;;
30472;SDS011;17263;48.160;11.452;2024-01-06T12:51:45;9.47;;;4.80;;
30472;SDS011;17263;48.160;11.452;2024-01-06T12:54:11;9.50;;;5.00;;
30472;SDS011;17263;48.160;11.452;2024-01-06T12:56:37;11.53;;;7.23;;
30472;SDS011;17263;48.160;11.452;2024-01-06T12:59:03;10.77;;;5.00;;
30472;SDS011;17263;48.160;11.452;2024-01-06T13:01:29;5.37;;;3.77;;
30472;SDS011;17263;48.160;11.452;2024-01-06T13:03:55;9.73;;;4.67;;
30472;SDS011;17263;48.160;11.452;2024-01-06T13:06:24;8.80;;;4.10;;
30472;SDS011;17263;48.160;11.452;2024-01-06T13:08:51;6.23;;;3.97;;
30472;SDS011;17263;48.160;11.452;2024-01-06T13:11:17;6.00;;;3.90;;
30472;SDS011;17263;48.160;11.452;2024-01-06T13:13:44;6.57;;;4.13;;
30472;SDS011;17263;48.160;11.452;2024-01-06T13:16:10;7.23;;;4.53;;
30472;SDS011;17263;48.160;11.452;2024-01-06T13:18:36;7.40;;;4.40;;
30472;SDS011;17263;48.160;11.452;2024-01-06T13:21:02;6.47;;;4.87;;
30472;SDS011;17263;48.160;11.452;2024-01-06T13:23:28;6.13;;;4.70;;
30472;SDS011;17263;48.160;11.452;2024-01-06T13:25:54;15.97;;;9.73;;
30472;SDS011;17263;48.160;11.452;2024-01-06T13:28:23;8.17;;;5.00;;
30472;SDS011;17263;48.160;11.452;2024-01-06T13:30:50;9.57;;;4.20;;
30472;SDS011;17263;48.160;11.452;2024-01-06T13:33:16;7.30;;;4.40;;
30472;SDS011;17263;48.160;11.452;2024-01-06T13:35:42;5.93;;;3.87;;
30472;SDS011;17263;48.160;11.452;2024-01-06T13:38:08;7.83;;;4.50;;
30472;SDS011;17263;48.160;11.452;2024-01-06T13:40:34;6.13;;;4.53;;
30472;SDS011;17263;48.160;11.452;2024-01-06T13:43:01;4.20;;;3.80;;
30472;SDS011;17263;48.160;11.452;2024-01-06T13:45:30;7.43;;;4.20;;
30472;SDS011;17263;48.160;11.452;2024-01-06T13:47:56;7.67;;;4.33;;
30472;SDS011;17263;48.160;11.452;2024-01-06T13:50:23;6.63;;;4.23;;
30472;SDS011;17263;48.160;11.452;2024-01-06T13:52:49;4.97;;;4.13;;
30472;SDS011;17263;48.160;11.452;2024-01-06T13:55:15;5.17;;;4.27;;
30472;SDS011;17263;48.160;11.452;2024-01-06T13:57:41;4.40;;;4.00;;
30472;SDS011;17263;48.160;11.452;2024-01-06T14:00:08;7.33;;;4.33;;
30472;SDS011;17263;48.160;11.452;2024-01-06T14:02:36;5.70;;;4.57;;
30472;SDS011;17263;48.160;11.452;2024-01-06T14:05:04;7.03;;;4.63;;
30472;SDS011;17263;48.160;11.452;2024-01-06T14:07:34;7.10;;;4.47;;
30472;SDS011;17263;48.160;11.452;2024-01-06T14:10:01;8.43;;;5.03;;
30472;SDS011;17263;48.160;11.452;2024-01-06T14:12:29;5.53;;;4.60;;
30472;SDS011;17263;48.160;11.452;2024-01-06T14:14:56;5.77;;;4.57;;
30472;SDS011;17263;48.160;11.452;2024-01-06T14:17:22;5.90;;;4.90;;
30472;SDS011;17263;48.160;11.452;2024-01-06T14:19:48;5.40;;;4.60;;
30472;SDS011;17263;48.160;11.452;2024-01-06T14:22:14;5.97;;;5.17;;
30472;SDS011;17263;48.160;11.452;2024-01-06T14:24:40;6.13;;;4.70;;
30472;SDS011;17263;48.160;11.452;2024-01-06T14:27:07;6.93;;;4.90;;
30472;SDS011;17263;48.160;11.452;2024-01-06T14:29:33;6.27;;;5.20;;
30472;SDS011;17263;48.160;11.452;2024-01-06T14:31:59;7.83;;;5.07;;